sensor_id;sensor_type;location;lat;lon;timestamp;temperature;humidity
11846;DHT22;5982;37.494;-8.758;2023-05-07T00:02:25;16.50;99.90
11846;DHT22;5982;37.494;-8.758;2023-05-07T00:04:53;16.40;99.90
11846;DHT22;5982;37.494;-8.758;2023-05-07T00:07:22;16.40;99.90
11846;DHT22;5982;37.494;-8.758;2023-05-07T00:09:50;16.50;99.90
11846;DHT22;5982;37.494;-8.758;2023-05-07T00:12:18;16.60;99.90
11846;DHT22;5982;37.494;-8.758;2023-05-07T00:14:45;16.70;99.90
11846;DHT22;5982;37.494;-8.758;2023-05-07T00:17:13;16.70;99.90
11846;DHT22;5982;37.494;-8.758;2023-05-07T00:19:41;16.80;99.90
11846;DHT22;5982;37.494;-8.758;2023-05-07T00:22:09;16.90;99.90
11846;DHT22;5982;37.494;-8.758;2023-05-07T00:24:38;16.90;99.90
11846;DHT22;5982;37.494;-8.758;2023-05-07T00:27:06;17.00;99.90
11846;DHT22;5982;37.494;-8.758;2023-05-07T00:29:34;17.10;99.90
11846;DHT22;5982;37.494;-8.758;2023-05-07T00:32:02;17.10;99.90
11846;DHT22;5982;37.494;-8.758;2023-05-07T00:34:30;17.20;99.90
11846;DHT22;5982;37.494;-8.758;2023-05-07T00:36:57;17.20;99.90
11846;DHT22;5982;37.494;-8.758;2023-05-07T00:39:25;17.30;99.90
11846;DHT22;5982;37.494;-8.758;2023-05-07T00:41:54;17.30;99.90
11846;DHT22;5982;37.494;-8.758;2023-05-07T00:44:22;17.30;99.90
11846;DHT22;5982;37.494;-8.758;2023-05-07T00:46:50;17.30;99.90
11846;DHT22;5982;37.494;-8.758;2023-05-07T00:49:18;17.30;99.90
11846;DHT22;5982;37.494;-8.758;2023-05-07T00:51:46;17.30;99.90
11846;DHT22;5982;37.494;-8.758;2023-05-07T00:54:14;17.30;99.90
11846;DHT22;5982;37.494;-8.758;2023-05-07T00:56:42;17.30;99.90
11846;DHT22;5982;37.494;-8.758;2023-05-07T00:59:12;17.30;99.90
11846;DHT22;5982;37.494;-8.758;2023-05-07T01:01:39;17.20;99.90
11846;DHT22;5982;37.494;-8.758;2023-05-07T01:04:07;17.20;99.90
11846;DHT22;5982;37.494;-8.758;2023-05-07T01:06:35;17.20;99.90
11846;DHT22;5982;37.494;-8.758;2023-05-07T01:09:03;17.10;99.90
11846;DHT22;5982;37.494;-8.758;2023-05-07T01:11:31;17.10;99.90
11846;DHT22;5982;37.494;-8.758;2023-05-07T01:13:59;17.10;99.90
11846;DHT22;5982;37.494;-8.758;2023-05-07T01:16:29;17.00;99.90
11846;DHT22;5982;37.494;-8.758;2023-05-07T01:18:57;17.10;99.90
11846;DHT22;5982;37.494;-8.758;2023-05-07T01:21:25;17.10;99.90
11846;DHT22;5982;37.494;-8.758;2023-05-07T01:23:55;17.00;99.90
11846;DHT22;5982;37.494;-8.758;2023-05-07T01:26:23;17.00;99.90
11846;DHT22;5982;37.494;-8.758;2023-05-07T01:28:51;17.00;99.90
11846;DHT22;5982;37.494;-8.758;2023-05-07T01:31:19;16.90;99.90
11846;DHT22;5982;37.494;-8.758;2023-05-07T01:33:47;16.90;99.90
11846;DHT22;5982;37.494;-8.758;2023-05-07T01:36:16;17.00;99.90
11846;DHT22;5982;37.494;-8.758;2023-05-07T01:38:44;17.00;99.90
11846;DHT22;5982;37.494;-8.758;2023-05-07T01:41:14;17.00;99.90
11846;DHT22;5982;37.494;-8.758;2023-05-07T01:43:42;17.00;99.90
11846;DHT22;5982;37.494;-8.758;2023-05-07T01:46:09;16.90;99.90
11846;DHT22;5982;37.494;-8.758;2023-05-07T01:48:38;16.90;99.90
11846;DHT22;5982;37.494;-8.758;2023-05-07T01:51:06;16.90;99.90
11846;DHT22;5982;37.494;-8.758;2023-05-07T01:53:37;16.90;99.90
11846;DHT22;5982;37.494;-8.758;2023-05-07T01:56:06;16.90;99.90
11846;DHT22;5982;37.494;-8.758;2023-05-07T01:58:35;16.80;99.90
11846;DHT22;5982;37.494;-8.758;2023-05-07T02:01:03;16.70;99.90
11846;DHT22;5982;37.494;-8.758;2023-05-07T02:03:31;16.60;99.90
11846;DHT22;5982;37.494;-8.758;2023-05-07T02:05:59;16.60;99.90
11846;DHT22;5982;37.494;-8.758;2023-05-07T02:08:26;16.60;99.90
11846;DHT22;5982;37.494;-8.758;2023-05-07T02:10:54;16.60;99.90
11846;DHT22;5982;37.494;-8.758;2023-05-07T02:13:22;16.50;99.90
11846;DHT22;5982;37.494;-8.758;2023-05-07T02:15:51;16.60;99.90
11846;DHT22;5982;37.494;-8.758;2023-05-07T02:18:19;16.60;99.90
11846;DHT22;5982;37.494;-8.758;2023-05-07T02:20:47;16.70;99.90
11846;DHT22;5982;37.494;-8.758;2023-05-07T02:23:14;16.70;99.90
11846;DHT22;5982;37.494;-8.758;2023-05-07T02:25:42;16.70;99.90
11846;DHT22;5982;37.494;-8.758;2023-05-07T02:28:11;16.70;99.90
11846;DHT22;5982;37.494;-8.758;2023-05-07T02:30:38;16.70;99.90
11846;DHT22;5982;37.494;-8.758;2023-05-07T02:33:08;16.70;99.90
11846;DHT22;5982;37.494;-8.758;2023-05-07T02:35:38;16.70;99.90
11846;DHT22;5982;37.494;-8.758;2023-05-07T02:38:05;16.70;99.90
11846;DHT22;5982;37.494;-8.758;2023-05-07T02:40:38;16.70;99.90
11846;DHT22;5982;37.494;-8.758;2023-05-07T02:43:06;16.70;99.90
11846;DHT22;5982;37.494;-8.758;2023-05-07T02:45:33;16.60;99.90
11846;DHT22;5982;37.494;-8.758;2023-05-07T02:48:01;16.60;99.90
11846;DHT22;5982;37.494;-8.758;2023-05-07T02:50:31;16.60;99.90
11846;DHT22;5982;37.494;-8.758;2023-05-07T02:52:58;16.60;99.90
11846;DHT22;5982;37.494;-8.758;2023-05-07T02:55:26;16.60;99.90
11846;DHT22;5982;37.494;-8.758;2023-05-07T02:57:54;16.60;99.90
11846;DHT22;5982;37.494;-8.758;2023-05-07T03:00:23;16.60;99.90
11846;DHT22;5982;37.494;-8.758;2023-05-07T03:02:51;16.50;99.90
11846;DHT22;5982;37.494;-8.758;2023-05-07T03:05:19;16.60;99.90
11846;DHT22;5982;37.494;-8.758;2023-05-07T03:07:48;16.60;99.90
11846;DHT22;5982;37.494;-8.758;2023-05-07T03:10:16;16.60;99.90
11846;DHT22;5982;37.494;-8.758;2023-05-07T03:12:44;16.50;99.90
11846;DHT22;5982;37.494;-8.758;2023-05-07T03:15:12;16.40;99.90
11846;DHT22;5982;37.494;-8.758;2023-05-07T03:17:39;16.40;99.90
11846;DHT22;5982;37.494;-8.758;2023-05-07T03:20:08;16.30;99.90
11846;DHT22;5982;37.494;-8.758;2023-05-07T03:22:36;16.30;99.90
11846;DHT22;5982;37.494;-8.758;2023-05-07T03:25:06;16.30;99.90
11846;DHT22;5982;37.494;-8.758;2023-05-07T03:27:35;16.40;99.90
11846;DHT22;5982;37.494;-8.758;2023-05-07T03:30:03;16.50;99.90
11846;DHT22;5982;37.494;-8.758;2023-05-07T03:32:50;16.50;99.90
11846;DHT22;5982;37.494;-8.758;2023-05-07T03:35:18;16.50;99.90
11846;DHT22;5982;37.494;-8.758;2023-05-07T03:37:46;16.40;99.90
11846;DHT22;5982;37.494;-8.758;2023-05-07T03:40:15;16.30;99.90
11846;DHT22;5982;37.494;-8.758;2023-05-07T03:42:43;16.30;99.90
11846;DHT22;5982;37.494;-8.758;2023-05-07T03:45:11;16.20;99.90
11846;DHT22;5982;37.494;-8.758;2023-05-07T03:47:38;16.20;99.90
11846;DHT22;5982;37.494;-8.758;2023-05-07T03:50:06;16.10;99.90
11846;DHT22;5982;37.494;-8.758;2023-05-07T03:52:34;16.10;99.90
11846;DHT22;5982;37.494;-8.758;2023-05-07T03:55:02;16.10;99.90
11846;DHT22;5982;37.494;-8.758;2023-05-07T03:57:32;16.10;99.90
11846;DHT22;5982;37.494;-8.758;2023-05-07T04:00:03;16.20;99.90
11846;DHT22;5982;37.494;-8.758;2023-05-07T04:02:34;16.10;99.90
11846;DHT22;5982;37.494;-8.758;2023-05-07T04:05:02;16.10;99.90
11846;DHT22;5982;37.494;-8.758;2023-05-07T04:07:30;16.10;99.90
11846;DHT22;5982;37.494;-8.758;2023-05-07T04:09:58;16.20;99.90
11846;DHT22;5982;37.494;-8.758;2023-05-07T04:12:26;16.30;99.90
11846;DHT22;5982;37.494;-8.758;2023-05-07T04:14:55;16.30;99.90
11846;DHT22;5982;37.494;-8.758;2023-05-07T04:17:23;16.30;99.90
11846;DHT22;5982;37.494;-8.758;2023-05-07T04:19:52;16.30;99.90
11846;DHT22;5982;37.494;-8.758;2023-05-07T04:22:19;16.30;99.90
11846;DHT22;5982;37.494;-8.758;2023-05-07T04:24:47;16.30;99.90
11846;DHT22;5982;37.494;-8.758;2023-05-07T04:27:15;16.20;99.90
11846;DHT22;5982;37.494;-8.758;2023-05-07T04:29:43;16.20;99.90
11846;DHT22;5982;37.494;-8.758;2023-05-07T04:32:14;16.10;99.90
11846;DHT22;5982;37.494;-8.758;2023-05-07T04:34:42;16.00;99.90
11846;DHT22;5982;37.494;-8.758;2023-05-07T04:37:09;16.10;99.90
11846;DHT22;5982;37.494;-8.758;2023-05-07T04:39:37;16.00;99.90
11846;DHT22;5982;37.494;-8.758;2023-05-07T04:42:05;16.00;99.90
11846;DHT22;5982;37.494;-8.758;2023-05-07T04:44:34;15.90;99.90
11846;DHT22;5982;37.494;-8.758;2023-05-07T04:47:02;15.90;99.90
11846;DHT22;5982;37.494;-8.758;2023-05-07T04:49:32;15.90;99.90
11846;DHT22;5982;37.494;-8.758;2023-05-07T04:51:59;15.90;99.90
11846;DHT22;5982;37.494;-8.758;2023-05-07T04:54:29;15.80;99.90
11846;DHT22;5982;37.494;-8.758;2023-05-07T04:56:56;15.70;99.90
11846;DHT22;5982;37.494;-8.758;2023-05-07T04:59:24;15.70;99.90
11846;DHT22;5982;37.494;-8.758;2023-05-07T05:01:52;15.60;99.90
11846;DHT22;5982;37.494;-8.758;2023-05-07T05:04:20;15.60;99.90
11846;DHT22;5982;37.494;-8.758;2023-05-07T05:06:49;15.60;99.90
11846;DHT22;5982;37.494;-8.758;2023-05-07T05:09:17;15.50;99.90
11846;DHT22;5982;37.494;-8.758;2023-05-07T05:11:45;15.40;99.90
11846;DHT22;5982;37.494;-8.758;2023-05-07T05:14:12;15.40;99.90
11846;DHT22;5982;37.494;-8.758;2023-05-07T05:16:40;15.40;99.90
11846;DHT22;5982;37.494;-8.758;2023-05-07T05:19:08;15.30;99.90
11846;DHT22;5982;37.494;-8.758;2023-05-07T05:21:36;15.20;99.90
11846;DHT22;5982;37.494;-8.758;2023-05-07T05:24:06;15.20;99.90
11846;DHT22;5982;37.494;-8.758;2023-05-07T05:26:33;15.20;99.90
11846;DHT22;5982;37.494;-8.758;2023-05-07T05:29:01;15.20;99.90
11846;DHT22;5982;37.494;-8.758;2023-05-07T05:31:29;15.20;99.90
11846;DHT22;5982;37.494;-8.758;2023-05-07T05:33:57;15.10;99.90
11846;DHT22;5982;37.494;-8.758;2023-05-07T05:36:25;15.00;99.90
11846;DHT22;5982;37.494;-8.758;2023-05-07T05:38:53;15.00;99.90
11846;DHT22;5982;37.494;-8.758;2023-05-07T05:41:22;14.90;99.90
11846;DHT22;5982;37.494;-8.758;2023-05-07T05:43:50;14.90;99.90
11846;DHT22;5982;37.494;-8.758;2023-05-07T05:46:18;14.90;99.90
11846;DHT22;5982;37.494;-8.758;2023-05-07T05:48:46;15.00;99.90
11846;DHT22;5982;37.494;-8.758;2023-05-07T05:51:13;15.00;99.90
11846;DHT22;5982;37.494;-8.758;2023-05-07T05:53:41;15.00;99.90
11846;DHT22;5982;37.494;-8.758;2023-05-07T05:56:09;15.20;99.90
11846;DHT22;5982;37.494;-8.758;2023-05-07T05:58:38;15.30;99.90
11846;DHT22;5982;37.494;-8.758;2023-05-07T06:01:06;15.60;99.90
11846;DHT22;5982;37.494;-8.758;2023-05-07T06:03:34;16.10;99.90
11846;DHT22;5982;37.494;-8.758;2023-05-07T06:06:02;16.70;99.90
11846;DHT22;5982;37.494;-8.758;2023-05-07T06:08:29;17.30;99.90
11846;DHT22;5982;37.494;-8.758;2023-05-07T06:10:57;17.90;99.90
11846;DHT22;5982;37.494;-8.758;2023-05-07T06:13:26;18.40;99.90
11846;DHT22;5982;37.494;-8.758;2023-05-07T06:15:55;18.70;99.90
11846;DHT22;5982;37.494;-8.758;2023-05-07T06:18:23;18.70;99.90
11846;DHT22;5982;37.494;-8.758;2023-05-07T06:20:51;18.10;99.90
11846;DHT22;5982;37.494;-8.758;2023-05-07T06:23:20;17.60;99.90
11846;DHT22;5982;37.494;-8.758;2023-05-07T06:25:48;17.40;99.90
11846;DHT22;5982;37.494;-8.758;2023-05-07T06:28:16;17.40;99.90
11846;DHT22;5982;37.494;-8.758;2023-05-07T06:30:44;17.90;99.90
11846;DHT22;5982;37.494;-8.758;2023-05-07T06:33:13;18.30;99.90
11846;DHT22;5982;37.494;-8.758;2023-05-07T06:35:41;18.80;99.90
11846;DHT22;5982;37.494;-8.758;2023-05-07T06:38:09;20.20;99.90
11846;DHT22;5982;37.494;-8.758;2023-05-07T06:40:38;21.20;99.90
11846;DHT22;5982;37.494;-8.758;2023-05-07T06:43:05;22.30;99.90
11846;DHT22;5982;37.494;-8.758;2023-05-07T06:45:33;23.50;99.90
11846;DHT22;5982;37.494;-8.758;2023-05-07T06:48:02;24.20;99.90
11846;DHT22;5982;37.494;-8.758;2023-05-07T06:50:31;25.00;99.90
11846;DHT22;5982;37.494;-8.758;2023-05-07T06:52:59;25.70;99.90
11846;DHT22;5982;37.494;-8.758;2023-05-07T06:55:27;26.00;99.90
11846;DHT22;5982;37.494;-8.758;2023-05-07T06:57:55;26.20;99.90
11846;DHT22;5982;37.494;-8.758;2023-05-07T07:00:24;26.30;99.90
11846;DHT22;5982;37.494;-8.758;2023-05-07T07:02:52;26.00;99.90
11846;DHT22;5982;37.494;-8.758;2023-05-07T07:05:20;26.00;99.90
11846;DHT22;5982;37.494;-8.758;2023-05-07T07:07:49;25.60;99.90
11846;DHT22;5982;37.494;-8.758;2023-05-07T07:10:18;24.80;99.90
11846;DHT22;5982;37.494;-8.758;2023-05-07T07:12:46;24.20;99.90
11846;DHT22;5982;37.494;-8.758;2023-05-07T07:15:14;23.70;99.90
11846;DHT22;5982;37.494;-8.758;2023-05-07T07:17:42;23.10;99.90
11846;DHT22;5982;37.494;-8.758;2023-05-07T07:20:10;22.60;99.90
11846;DHT22;5982;37.494;-8.758;2023-05-07T07:22:38;22.20;99.90
11846;DHT22;5982;37.494;-8.758;2023-05-07T07:25:08;21.90;99.90
11846;DHT22;5982;37.494;-8.758;2023-05-07T07:27:36;21.70;99.90
11846;DHT22;5982;37.494;-8.758;2023-05-07T07:30:06;21.50;99.90
11846;DHT22;5982;37.494;-8.758;2023-05-07T07:32:34;21.40;99.90
11846;DHT22;5982;37.494;-8.758;2023-05-07T07:35:02;21.30;99.90
11846;DHT22;5982;37.494;-8.758;2023-05-07T07:37:31;21.20;99.90
11846;DHT22;5982;37.494;-8.758;2023-05-07T07:39:59;21.20;99.90
11846;DHT22;5982;37.494;-8.758;2023-05-07T07:42:29;21.00;99.90
11846;DHT22;5982;37.494;-8.758;2023-05-07T07:44:57;21.00;99.90
11846;DHT22;5982;37.494;-8.758;2023-05-07T07:47:24;21.10;99.90
11846;DHT22;5982;37.494;-8.758;2023-05-07T07:49:52;21.00;99.90
11846;DHT22;5982;37.494;-8.758;2023-05-07T07:52:20;21.10;99.90
11846;DHT22;5982;37.494;-8.758;2023-05-07T07:54:48;21.00;99.90
11846;DHT22;5982;37.494;-8.758;2023-05-07T07:57:15;21.10;99.90
11846;DHT22;5982;37.494;-8.758;2023-05-07T07:59:45;21.40;99.90
11846;DHT22;5982;37.494;-8.758;2023-05-07T08:02:13;21.70;99.90
11846;DHT22;5982;37.494;-8.758;2023-05-07T08:04:40;22.00;99.90
11846;DHT22;5982;37.494;-8.758;2023-05-07T08:07:08;22.30;99.90
11846;DHT22;5982;37.494;-8.758;2023-05-07T08:09:37;22.60;99.90
11846;DHT22;5982;37.494;-8.758;2023-05-07T08:12:06;22.70;99.90
11846;DHT22;5982;37.494;-8.758;2023-05-07T08:14:34;22.70;99.90
11846;DHT22;5982;37.494;-8.758;2023-05-07T08:17:04;22.50;99.90
11846;DHT22;5982;37.494;-8.758;2023-05-07T08:19:32;22.60;99.90
11846;DHT22;5982;37.494;-8.758;2023-05-07T08:22:00;22.70;99.90
11846;DHT22;5982;37.494;-8.758;2023-05-07T08:24:29;23.00;99.90
11846;DHT22;5982;37.494;-8.758;2023-05-07T08:26:57;23.10;99.90
11846;DHT22;5982;37.494;-8.758;2023-05-07T08:29:25;23.20;99.90
11846;DHT22;5982;37.494;-8.758;2023-05-07T08:31:53;23.10;99.90
11846;DHT22;5982;37.494;-8.758;2023-05-07T08:34:22;23.00;99.90
11846;DHT22;5982;37.494;-8.758;2023-05-07T08:36:50;22.60;99.90
11846;DHT22;5982;37.494;-8.758;2023-05-07T08:39:18;22.60;99.90
11846;DHT22;5982;37.494;-8.758;2023-05-07T08:41:46;22.30;99.90
11846;DHT22;5982;37.494;-8.758;2023-05-07T08:44:15;22.10;99.90
11846;DHT22;5982;37.494;-8.758;2023-05-07T08:46:44;22.20;99.90
11846;DHT22;5982;37.494;-8.758;2023-05-07T08:49:14;22.40;99.90
11846;DHT22;5982;37.494;-8.758;2023-05-07T08:51:43;22.40;99.90
11846;DHT22;5982;37.494;-8.758;2023-05-07T08:54:11;22.60;99.90
11846;DHT22;5982;37.494;-8.758;2023-05-07T08:56:40;22.80;99.90
11846;DHT22;5982;37.494;-8.758;2023-05-07T08:59:08;22.80;99.90
11846;DHT22;5982;37.494;-8.758;2023-05-07T09:01:37;22.60;99.90
11846;DHT22;5982;37.494;-8.758;2023-05-07T09:04:04;22.80;99.90
11846;DHT22;5982;37.494;-8.758;2023-05-07T09:06:33;23.10;99.90
11846;DHT22;5982;37.494;-8.758;2023-05-07T09:09:02;23.40;99.90
11846;DHT22;5982;37.494;-8.758;2023-05-07T09:11:31;23.70;99.90
11846;DHT22;5982;37.494;-8.758;2023-05-07T09:13:58;23.70;99.90
11846;DHT22;5982;37.494;-8.758;2023-05-07T09:16:28;23.10;99.90
11846;DHT22;5982;37.494;-8.758;2023-05-07T09:18:57;22.70;99.90
11846;DHT22;5982;37.494;-8.758;2023-05-07T09:21:26;22.40;99.90
11846;DHT22;5982;37.494;-8.758;2023-05-07T09:23:55;22.30;99.90
11846;DHT22;5982;37.494;-8.758;2023-05-07T09:26:24;22.40;99.90
11846;DHT22;5982;37.494;-8.758;2023-05-07T09:28:53;22.70;99.90
11846;DHT22;5982;37.494;-8.758;2023-05-07T09:31:21;22.90;99.90
11846;DHT22;5982;37.494;-8.758;2023-05-07T09:33:50;23.00;99.90
11846;DHT22;5982;37.494;-8.758;2023-05-07T09:36:21;23.20;99.90
11846;DHT22;5982;37.494;-8.758;2023-05-07T09:38:49;23.10;99.90
11846;DHT22;5982;37.494;-8.758;2023-05-07T09:41:17;23.00;99.90
11846;DHT22;5982;37.494;-8.758;2023-05-07T09:43:48;23.00;99.90
11846;DHT22;5982;37.494;-8.758;2023-05-07T09:46:22;23.00;99.90
11846;DHT22;5982;37.494;-8.758;2023-05-07T09:48:52;23.00;99.90
11846;DHT22;5982;37.494;-8.758;2023-05-07T09:51:22;23.10;99.90
11846;DHT22;5982;37.494;-8.758;2023-05-07T09:53:53;23.20;99.90
11846;DHT22;5982;37.494;-8.758;2023-05-07T09:56:21;23.10;99.90
11846;DHT22;5982;37.494;-8.758;2023-05-07T09:58:50;23.10;99.90
11846;DHT22;5982;37.494;-8.758;2023-05-07T10:01:20;23.20;99.90
11846;DHT22;5982;37.494;-8.758;2023-05-07T10:03:48;23.10;99.90
11846;DHT22;5982;37.494;-8.758;2023-05-07T10:06:17;23.20;99.90
11846;DHT22;5982;37.494;-8.758;2023-05-07T10:08:45;23.20;99.90
11846;DHT22;5982;37.494;-8.758;2023-05-07T10:11:13;23.30;99.90
11846;DHT22;5982;37.494;-8.758;2023-05-07T10:13:41;23.30;99.90
11846;DHT22;5982;37.494;-8.758;2023-05-07T10:16:11;23.40;99.90
11846;DHT22;5982;37.494;-8.758;2023-05-07T10:18:39;23.50;99.90
11846;DHT22;5982;37.494;-8.758;2023-05-07T10:21:08;23.60;99.90
11846;DHT22;5982;37.494;-8.758;2023-05-07T10:23:39;23.60;99.90
11846;DHT22;5982;37.494;-8.758;2023-05-07T10:26:07;23.70;99.90
11846;DHT22;5982;37.494;-8.758;2023-05-07T10:28:36;23.60;99.90
11846;DHT22;5982;37.494;-8.758;2023-05-07T10:31:18;23.60;99.90
11846;DHT22;5982;37.494;-8.758;2023-05-07T10:33:55;23.50;99.90
11846;DHT22;5982;37.494;-8.758;2023-05-07T10:36:24;23.20;99.90
11846;DHT22;5982;37.494;-8.758;2023-05-07T10:38:52;23.00;99.90
11846;DHT22;5982;37.494;-8.758;2023-05-07T10:41:20;22.80;99.90
11846;DHT22;5982;37.494;-8.758;2023-05-07T10:43:48;22.60;99.90
11846;DHT22;5982;37.494;-8.758;2023-05-07T10:46:17;22.50;99.90
11846;DHT22;5982;37.494;-8.758;2023-05-07T10:51:38;22.10;99.90
11846;DHT22;5982;37.494;-8.758;2023-05-07T10:54:19;21.90;99.90
11846;DHT22;5982;37.494;-8.758;2023-05-07T10:56:48;21.80;99.90
11846;DHT22;5982;37.494;-8.758;2023-05-07T10:59:35;21.90;99.90
11846;DHT22;5982;37.494;-8.758;2023-05-07T11:02:10;21.80;99.90
11846;DHT22;5982;37.494;-8.758;2023-05-07T11:04:39;21.70;99.90
11846;DHT22;5982;37.494;-8.758;2023-05-07T11:10:05;22.10;99.90
11846;DHT22;5982;37.494;-8.758;2023-05-07T11:12:50;22.20;99.90
11846;DHT22;5982;37.494;-8.758;2023-05-07T11:15:36;22.30;99.90
11846;DHT22;5982;37.494;-8.758;2023-05-07T11:18:06;22.50;99.90
11846;DHT22;5982;37.494;-8.758;2023-05-07T11:20:47;22.30;99.90
11846;DHT22;5982;37.494;-8.758;2023-05-07T11:26:17;22.80;99.90
11846;DHT22;5982;37.494;-8.758;2023-05-07T11:28:45;22.90;99.90
11846;DHT22;5982;37.494;-8.758;2023-05-07T11:31:13;23.00;99.90
11846;DHT22;5982;37.494;-8.758;2023-05-07T11:33:43;23.00;99.90
11846;DHT22;5982;37.494;-8.758;2023-05-07T11:36:12;23.00;99.90
11846;DHT22;5982;37.494;-8.758;2023-05-07T11:38:39;23.00;99.90
11846;DHT22;5982;37.494;-8.758;2023-05-07T11:41:07;23.00;99.90
11846;DHT22;5982;37.494;-8.758;2023-05-07T11:43:35;23.10;99.90
11846;DHT22;5982;37.494;-8.758;2023-05-07T11:46:05;23.10;99.90
11846;DHT22;5982;37.494;-8.758;2023-05-07T11:48:35;23.30;99.90
11846;DHT22;5982;37.494;-8.758;2023-05-07T11:51:05;23.30;99.90
11846;DHT22;5982;37.494;-8.758;2023-05-07T11:53:37;23.30;99.90
11846;DHT22;5982;37.494;-8.758;2023-05-07T11:56:07;23.30;99.90
11846;DHT22;5982;37.494;-8.758;2023-05-07T11:58:35;23.40;99.90
11846;DHT22;5982;37.494;-8.758;2023-05-07T12:01:03;23.30;99.90
11846;DHT22;5982;37.494;-8.758;2023-05-07T12:03:31;23.50;99.90
11846;DHT22;5982;37.494;-8.758;2023-05-07T12:05:59;23.50;99.90
11846;DHT22;5982;37.494;-8.758;2023-05-07T12:08:29;23.60;99.90
11846;DHT22;5982;37.494;-8.758;2023-05-07T12:10:57;23.70;99.90
11846;DHT22;5982;37.494;-8.758;2023-05-07T12:13:25;23.80;99.90
11846;DHT22;5982;37.494;-8.758;2023-05-07T12:15:53;23.70;99.90
11846;DHT22;5982;37.494;-8.758;2023-05-07T12:18:21;23.60;99.90
11846;DHT22;5982;37.494;-8.758;2023-05-07T12:20:49;23.60;99.90
11846;DHT22;5982;37.494;-8.758;2023-05-07T12:23:17;23.60;99.90
11846;DHT22;5982;37.494;-8.758;2023-05-07T12:25:46;23.80;99.90
11846;DHT22;5982;37.494;-8.758;2023-05-07T12:28:14;23.80;99.90
11846;DHT22;5982;37.494;-8.758;2023-05-07T12:30:43;23.80;99.90
11846;DHT22;5982;37.494;-8.758;2023-05-07T12:33:12;23.80;99.90
11846;DHT22;5982;37.494;-8.758;2023-05-07T12:35:43;23.70;99.90
11846;DHT22;5982;37.494;-8.758;2023-05-07T12:38:12;23.70;99.90
11846;DHT22;5982;37.494;-8.758;2023-05-07T12:40:40;23.60;99.90
11846;DHT22;5982;37.494;-8.758;2023-05-07T12:45:45;23.60;99.90
11846;DHT22;5982;37.494;-8.758;2023-05-07T12:48:14;23.70;99.90
11846;DHT22;5982;37.494;-8.758;2023-05-07T12:50:42;23.60;99.90
11846;DHT22;5982;37.494;-8.758;2023-05-07T12:53:11;23.60;99.90
11846;DHT22;5982;37.494;-8.758;2023-05-07T12:55:41;23.70;99.90
11846;DHT22;5982;37.494;-8.758;2023-05-07T12:58:14;23.60;99.90
11846;DHT22;5982;37.494;-8.758;2023-05-07T13:00:46;23.60;99.90
11846;DHT22;5982;37.494;-8.758;2023-05-07T13:03:25;23.70;99.90
11846;DHT22;5982;37.494;-8.758;2023-05-07T13:05:54;23.70;99.90
11846;DHT22;5982;37.494;-8.758;2023-05-07T13:08:26;23.70;99.90
11846;DHT22;5982;37.494;-8.758;2023-05-07T13:10:55;23.70;99.90
11846;DHT22;5982;37.494;-8.758;2023-05-07T13:13:23;23.70;99.90
11846;DHT22;5982;37.494;-8.758;2023-05-07T13:15:52;23.70;99.90
11846;DHT22;5982;37.494;-8.758;2023-05-07T13:18:20;23.60;99.90
11846;DHT22;5982;37.494;-8.758;2023-05-07T13:20:48;23.70;99.90
11846;DHT22;5982;37.494;-8.758;2023-05-07T13:23:16;23.80;99.90
11846;DHT22;5982;37.494;-8.758;2023-05-07T13:25:44;23.80;99.90
11846;DHT22;5982;37.494;-8.758;2023-05-07T13:28:12;23.80;99.90
11846;DHT22;5982;37.494;-8.758;2023-05-07T13:30:40;23.80;99.90
11846;DHT22;5982;37.494;-8.758;2023-05-07T13:33:09;23.90;99.90
11846;DHT22;5982;37.494;-8.758;2023-05-07T13:35:37;24.00;99.90
11846;DHT22;5982;37.494;-8.758;2023-05-07T13:38:05;24.20;99.90
11846;DHT22;5982;37.494;-8.758;2023-05-07T13:40:33;24.10;99.90
11846;DHT22;5982;37.494;-8.758;2023-05-07T13:43:01;24.00;99.90
11846;DHT22;5982;37.494;-8.758;2023-05-07T13:45:29;24.10;99.90
11846;DHT22;5982;37.494;-8.758;2023-05-07T13:47:57;24.00;99.90
11846;DHT22;5982;37.494;-8.758;2023-05-07T13:50:26;24.20;99.90
11846;DHT22;5982;37.494;-8.758;2023-05-07T13:52:55;24.30;99.90
11846;DHT22;5982;37.494;-8.758;2023-05-07T13:55:23;24.40;99.90
11846;DHT22;5982;37.494;-8.758;2023-05-07T13:57:55;24.30;99.90
11846;DHT22;5982;37.494;-8.758;2023-05-07T14:00:23;24.30;99.90
11846;DHT22;5982;37.494;-8.758;2023-05-07T14:02:51;24.30;99.90
11846;DHT22;5982;37.494;-8.758;2023-05-07T14:05:19;24.30;99.90
11846;DHT22;5982;37.494;-8.758;2023-05-07T14:07:50;24.40;99.90
11846;DHT22;5982;37.494;-8.758;2023-05-07T14:10:18;24.50;99.90
11846;DHT22;5982;37.494;-8.758;2023-05-07T14:12:47;24.60;99.90
11846;DHT22;5982;37.494;-8.758;2023-05-07T14:15:14;24.50;99.90
11846;DHT22;5982;37.494;-8.758;2023-05-07T14:17:42;24.50;99.90
11846;DHT22;5982;37.494;-8.758;2023-05-07T14:20:11;24.50;99.90
11846;DHT22;5982;37.494;-8.758;2023-05-07T14:22:39;24.30;99.90
11846;DHT22;5982;37.494;-8.758;2023-05-07T14:25:09;24.50;99.90
11846;DHT22;5982;37.494;-8.758;2023-05-07T14:27:37;24.60;99.90
11846;DHT22;5982;37.494;-8.758;2023-05-07T14:30:05;24.60;99.90
11846;DHT22;5982;37.494;-8.758;2023-05-07T14:32:33;24.80;99.90
11846;DHT22;5982;37.494;-8.758;2023-05-07T14:35:01;24.80;99.90
11846;DHT22;5982;37.494;-8.758;2023-05-07T14:37:29;24.60;99.90
11846;DHT22;5982;37.494;-8.758;2023-05-07T14:39:57;24.60;99.90
11846;DHT22;5982;37.494;-8.758;2023-05-07T14:42:26;24.80;99.90
11846;DHT22;5982;37.494;-8.758;2023-05-07T14:44:54;24.90;99.90
11846;DHT22;5982;37.494;-8.758;2023-05-07T14:47:22;24.90;99.90
11846;DHT22;5982;37.494;-8.758;2023-05-07T14:49:50;24.90;99.90
11846;DHT22;5982;37.494;-8.758;2023-05-07T14:52:18;24.90;99.90
11846;DHT22;5982;37.494;-8.758;2023-05-07T14:54:46;25.10;99.90
11846;DHT22;5982;37.494;-8.758;2023-05-07T14:57:14;25.10;99.90
11846;DHT22;5982;37.494;-8.758;2023-05-07T14:59:45;25.30;99.90
11846;DHT22;5982;37.494;-8.758;2023-05-07T15:02:13;25.30;99.90
11846;DHT22;5982;37.494;-8.758;2023-05-07T15:04:42;25.40;99.90
11846;DHT22;5982;37.494;-8.758;2023-05-07T15:07:12;25.30;99.90
11846;DHT22;5982;37.494;-8.758;2023-05-07T15:09:40;25.30;99.90
11846;DHT22;5982;37.494;-8.758;2023-05-07T15:12:08;25.40;99.90
11846;DHT22;5982;37.494;-8.758;2023-05-07T15:14:36;25.50;99.90
11846;DHT22;5982;37.494;-8.758;2023-05-07T15:17:06;25.50;99.90
11846;DHT22;5982;37.494;-8.758;2023-05-07T15:19:34;25.40;99.90
11846;DHT22;5982;37.494;-8.758;2023-05-07T15:22:02;25.50;99.90
11846;DHT22;5982;37.494;-8.758;2023-05-07T15:24:29;25.50;99.90
11846;DHT22;5982;37.494;-8.758;2023-05-07T15:26:57;25.60;99.90
11846;DHT22;5982;37.494;-8.758;2023-05-07T15:29:26;25.60;99.90
11846;DHT22;5982;37.494;-8.758;2023-05-07T15:31:54;25.50;99.90
11846;DHT22;5982;37.494;-8.758;2023-05-07T15:34:23;25.60;99.90
11846;DHT22;5982;37.494;-8.758;2023-05-07T15:36:51;25.50;99.90
11846;DHT22;5982;37.494;-8.758;2023-05-07T15:39:19;25.40;99.90
11846;DHT22;5982;37.494;-8.758;2023-05-07T15:41:47;25.20;99.90
11846;DHT22;5982;37.494;-8.758;2023-05-07T15:44:14;24.90;99.90
11846;DHT22;5982;37.494;-8.758;2023-05-07T15:46:42;24.80;99.90
11846;DHT22;5982;37.494;-8.758;2023-05-07T15:49:10;24.70;99.90
11846;DHT22;5982;37.494;-8.758;2023-05-07T15:51:39;24.40;99.90